sensor_id;sensor_type;location;lat;lon;timestamp;pressure;altitude;pressure_sealevel;temperature;humidity
50011;BME280;35899;50.352;19.390;2023-04-22T00:00:29;97690.22;;;6.20;58.82
50011;BME280;35899;50.352;19.390;2023-04-22T00:03:14;97693.05;;;6.06;58.96
50011;BME280;35899;50.352;19.390;2023-04-22T00:05:41;97689.52;;;5.95;59.11
50011;BME280;35899;50.352;19.390;2023-04-22T00:08:08;97691.73;;;5.92;59.50
50011;BME280;35899;50.352;19.390;2023-04-22T00:10:34;97688.56;;;5.91;59.86
50011;BME280;35899;50.352;19.390;2023-04-22T00:13:00;97688.00;;;5.92;60.15
50011;BME280;35899;50.352;19.390;2023-04-22T00:15:27;97685.67;;;5.87;60.07
50011;BME280;35899;50.352;19.390;2023-04-22T00:17:53;97689.55;;;5.79;60.12
50011;BME280;35899;50.352;19.390;2023-04-22T00:20:20;97686.52;;;5.75;60.32
50011;BME280;35899;50.352;19.390;2023-04-22T00:22:46;97683.92;;;5.78;60.58
50011;BME280;35899;50.352;19.390;2023-04-22T00:25:13;97681.65;;;5.82;60.72
50011;BME280;35899;50.352;19.390;2023-04-22T00:27:39;97686.75;;;5.86;60.92
50011;BME280;35899;50.352;19.390;2023-04-22T00:30:06;97685.80;;;5.87;60.98
50011;BME280;35899;50.352;19.390;2023-04-22T00:32:32;97682.48;;;5.89;60.90
50011;BME280;35899;50.352;19.390;2023-04-22T00:34:59;97681.35;;;5.87;60.93
50011;BME280;35899;50.352;19.390;2023-04-22T00:37:25;97683.74;;;5.81;61.22
50011;BME280;35899;50.352;19.390;2023-04-22T00:39:51;97682.03;;;5.75;61.46
50011;BME280;35899;50.352;19.390;2023-04-22T00:42:18;97680.80;;;5.69;61.75
50011;BME280;35899;50.352;19.390;2023-04-22T00:44:45;97681.51;;;5.62;61.82
50011;BME280;35899;50.352;19.390;2023-04-22T00:47:12;97683.05;;;5.56;62.09
50011;BME280;35899;50.352;19.390;2023-04-22T00:49:38;97682.77;;;5.48;62.49
50011;BME280;35899;50.352;19.390;2023-04-22T00:52:05;97684.67;;;5.41;62.40
50011;BME280;35899;50.352;19.390;2023-04-22T00:54:32;97680.92;;;5.35;62.38
50011;BME280;35899;50.352;19.390;2023-04-22T00:57:00;97677.98;;;5.28;62.47
50011;BME280;35899;50.352;19.390;2023-04-22T00:59:27;97674.77;;;5.28;62.71
50011;BME280;35899;50.352;19.390;2023-04-22T01:01:53;97672.20;;;5.31;62.77
50011;BME280;35899;50.352;19.390;2023-04-22T01:04:21;97677.08;;;5.33;62.74
50011;BME280;35899;50.352;19.390;2023-04-22T01:06:49;97676.95;;;5.35;63.00
50011;BME280;35899;50.352;19.390;2023-04-22T01:09:17;97678.69;;;5.38;63.03
50011;BME280;35899;50.352;19.390;2023-04-22T01:11:44;97678.82;;;5.38;63.11
50011;BME280;35899;50.352;19.390;2023-04-22T01:14:11;97678.80;;;5.39;63.10
50011;BME280;35899;50.352;19.390;2023-04-22T01:16:37;97674.06;;;5.35;63.33
50011;BME280;35899;50.352;19.390;2023-04-22T01:19:04;97676.07;;;5.29;63.06
50011;BME280;35899;50.352;19.390;2023-04-22T01:21:31;97676.77;;;5.25;63.04
50011;BME280;35899;50.352;19.390;2023-04-22T01:23:59;97676.73;;;5.26;63.28
50011;BME280;35899;50.352;19.390;2023-04-22T01:26:25;97676.91;;;5.23;63.03
50011;BME280;35899;50.352;19.390;2023-04-22T01:28:52;97672.35;;;5.18;63.16
50011;BME280;35899;50.352;19.390;2023-04-22T01:31:19;97670.97;;;5.18;63.16
50011;BME280;35899;50.352;19.390;2023-04-22T01:33:45;97670.67;;;5.18;63.31
50011;BME280;35899;50.352;19.390;2023-04-22T01:36:12;97669.58;;;5.15;63.41
50011;BME280;35899;50.352;19.390;2023-04-22T01:38:39;97671.83;;;5.15;63.49
50011;BME280;35899;50.352;19.390;2023-04-22T01:41:08;97671.19;;;5.07;63.44
50011;BME280;35899;50.352;19.390;2023-04-22T01:43:35;97671.79;;;4.96;63.46
50011;BME280;35899;50.352;19.390;2023-04-22T01:46:01;97671.04;;;4.87;63.77
50011;BME280;35899;50.352;19.390;2023-04-22T01:48:29;97671.30;;;4.88;64.17
50011;BME280;35899;50.352;19.390;2023-04-22T01:50:56;97669.69;;;4.93;64.22
50011;BME280;35899;50.352;19.390;2023-04-22T01:53:25;97666.98;;;4.96;64.36
50011;BME280;35899;50.352;19.390;2023-04-22T01:55:51;97667.19;;;4.92;64.41
50011;BME280;35899;50.352;19.390;2023-04-22T01:58:18;97668.66;;;4.83;64.30
50011;BME280;35899;50.352;19.390;2023-04-22T02:00:45;97668.57;;;4.75;64.39
50011;BME280;35899;50.352;19.390;2023-04-22T02:03:12;97668.55;;;4.75;64.57
50011;BME280;35899;50.352;19.390;2023-04-22T02:05:41;97665.77;;;4.80;64.85
50011;BME280;35899;50.352;19.390;2023-04-22T02:08:07;97668.38;;;4.82;65.13
50011;BME280;35899;50.352;19.390;2023-04-22T02:10:34;97665.60;;;4.76;65.19
50011;BME280;35899;50.352;19.390;2023-04-22T02:13:00;97665.05;;;4.63;64.91
50011;BME280;35899;50.352;19.390;2023-04-22T02:15:27;97668.98;;;4.53;65.29
50011;BME280;35899;50.352;19.390;2023-04-22T02:17:53;97669.94;;;4.44;65.50
50011;BME280;35899;50.352;19.390;2023-04-22T02:20:20;97670.00;;;4.32;65.32
50011;BME280;35899;50.352;19.390;2023-04-22T02:22:46;97670.89;;;4.21;65.56
50011;BME280;35899;50.352;19.390;2023-04-22T02:25:13;97671.58;;;4.17;65.60
50011;BME280;35899;50.352;19.390;2023-04-22T02:27:39;97669.70;;;4.17;65.93
50011;BME280;35899;50.352;19.390;2023-04-22T02:30:06;97669.36;;;4.14;65.99
50011;BME280;35899;50.352;19.390;2023-04-22T02:32:34;97668.09;;;4.11;65.87
50011;BME280;35899;50.352;19.390;2023-04-22T02:35:00;97666.58;;;4.11;66.49
50011;BME280;35899;50.352;19.390;2023-04-22T02:37:27;97665.27;;;4.17;66.65
50011;BME280;35899;50.352;19.390;2023-04-22T02:39:54;97666.31;;;4.24;67.00
50011;BME280;35899;50.352;19.390;2023-04-22T02:42:20;97663.71;;;4.28;67.00
50011;BME280;35899;50.352;19.390;2023-04-22T02:44:46;97664.27;;;4.30;66.96
50011;BME280;35899;50.352;19.390;2023-04-22T02:47:13;97665.16;;;4.29;66.70
50011;BME280;35899;50.352;19.390;2023-04-22T02:49:39;97658.20;;;4.28;66.82
50011;BME280;35899;50.352;19.390;2023-04-22T02:52:06;97659.09;;;4.27;66.84
50011;BME280;35899;50.352;19.390;2023-04-22T02:54:32;97654.21;;;4.25;66.69
50011;BME280;35899;50.352;19.390;2023-04-22T02:56:59;97659.58;;;4.24;66.73
50011;BME280;35899;50.352;19.390;2023-04-22T02:59:25;97662.88;;;4.23;66.73
50011;BME280;35899;50.352;19.390;2023-04-22T03:01:52;97665.73;;;4.25;66.85
50011;BME280;35899;50.352;19.390;2023-04-22T03:04:37;97665.58;;;4.24;66.77
50011;BME280;35899;50.352;19.390;2023-04-22T03:07:04;97668.17;;;4.24;66.98
50011;BME280;35899;50.352;19.390;2023-04-22T03:09:30;97663.65;;;4.18;66.97
50011;BME280;35899;50.352;19.390;2023-04-22T03:11:56;97663.43;;;4.09;66.97
50011;BME280;35899;50.352;19.390;2023-04-22T03:14:23;97661.94;;;4.01;67.09
50011;BME280;35899;50.352;19.390;2023-04-22T03:16:49;97665.33;;;3.94;67.40
50011;BME280;35899;50.352;19.390;2023-04-22T03:19:16;97667.14;;;3.88;67.22
50011;BME280;35899;50.352;19.390;2023-04-22T03:21:43;97669.94;;;3.83;67.10
50011;BME280;35899;50.352;19.390;2023-04-22T03:24:09;97669.79;;;3.79;67.29
50011;BME280;35899;50.352;19.390;2023-04-22T03:26:36;97671.92;;;3.74;67.45
50011;BME280;35899;50.352;19.390;2023-04-22T03:29:02;97671.59;;;3.70;67.50
50011;BME280;35899;50.352;19.390;2023-04-22T03:31:29;97671.06;;;3.67;67.89
50011;BME280;35899;50.352;19.390;2023-04-22T03:33:55;97669.79;;;3.65;68.23
50011;BME280;35899;50.352;19.390;2023-04-22T03:36:26;97669.02;;;3.70;68.54
50011;BME280;35899;50.352;19.390;2023-04-22T03:38:52;97672.27;;;3.77;68.71
50011;BME280;35899;50.352;19.390;2023-04-22T03:41:19;97671.02;;;3.78;68.67
50011;BME280;35899;50.352;19.390;2023-04-22T03:43:46;97672.84;;;3.76;68.78
50011;BME280;35899;50.352;19.390;2023-04-22T03:46:13;97674.27;;;3.75;68.83
50011;BME280;35899;50.352;19.390;2023-04-22T03:48:48;97675.52;;;3.81;69.16
50011;BME280;35899;50.352;19.390;2023-04-22T03:51:24;97678.48;;;3.87;69.05
50011;BME280;35899;50.352;19.390;2023-04-22T03:53:51;97678.89;;;3.93;69.06
50011;BME280;35899;50.352;19.390;2023-04-22T03:56:19;97675.80;;;4.01;69.13
50011;BME280;35899;50.352;19.390;2023-04-22T03:58:45;97676.98;;;4.08;69.29
50011;BME280;35899;50.352;19.390;2023-04-22T04:01:12;97676.11;;;4.16;69.24
50011;BME280;35899;50.352;19.390;2023-04-22T04:03:40;97682.11;;;4.23;69.05
50011;BME280;35899;50.352;19.390;2023-04-22T04:06:07;97678.59;;;4.28;69.02
50011;BME280;35899;50.352;19.390;2023-04-22T04:08:33;97683.64;;;4.34;68.96
50011;BME280;35899;50.352;19.390;2023-04-22T04:11:00;97682.33;;;4.40;68.91
50011;BME280;35899;50.352;19.390;2023-04-22T04:13:26;97680.40;;;4.44;68.73
50011;BME280;35899;50.352;19.390;2023-04-22T04:16:10;97680.06;;;4.43;68.55
50011;BME280;35899;50.352;19.390;2023-04-22T04:18:38;97683.27;;;4.41;68.60
50011;BME280;35899;50.352;19.390;2023-04-22T04:21:04;97684.46;;;4.41;68.81
50011;BME280;35899;50.352;19.390;2023-04-22T04:23:32;97684.80;;;4.41;69.07
50011;BME280;35899;50.352;19.390;2023-04-22T04:25:59;97680.70;;;4.44;69.08
50011;BME280;35899;50.352;19.390;2023-04-22T04:28:26;97684.45;;;4.45;68.73
50011;BME280;35899;50.352;19.390;2023-04-22T04:30:52;97684.04;;;4.43;68.79
50011;BME280;35899;50.352;19.390;2023-04-22T04:33:19;97682.90;;;4.42;68.74
50011;BME280;35899;50.352;19.390;2023-04-22T04:35:45;97687.31;;;4.43;68.94
50011;BME280;35899;50.352;19.390;2023-04-22T04:38:14;97689.55;;;4.46;68.98
50011;BME280;35899;50.352;19.390;2023-04-22T04:40:41;97688.48;;;4.50;69.23
50011;BME280;35899;50.352;19.390;2023-04-22T04:43:12;97687.20;;;4.52;69.22
50011;BME280;35899;50.352;19.390;2023-04-22T04:45:46;97687.52;;;4.52;69.09
50011;BME280;35899;50.352;19.390;2023-04-22T04:48:16;97690.73;;;4.53;69.17
50011;BME280;35899;50.352;19.390;2023-04-22T04:50:48;97689.42;;;4.55;69.24
50011;BME280;35899;50.352;19.390;2023-04-22T04:53:15;97689.86;;;4.64;69.51
50011;BME280;35899;50.352;19.390;2023-04-22T04:55:42;97689.02;;;4.80;69.75
50011;BME280;35899;50.352;19.390;2023-04-22T04:58:17;97691.70;;;4.99;70.00
50011;BME280;35899;50.352;19.390;2023-04-22T05:00:44;97690.58;;;5.17;70.23
50011;BME280;35899;50.352;19.390;2023-04-22T05:03:11;97689.19;;;5.37;69.94
50011;BME280;35899;50.352;19.390;2023-04-22T05:05:40;97687.80;;;5.57;69.85
50011;BME280;35899;50.352;19.390;2023-04-22T05:08:07;97690.86;;;5.77;69.73
50011;BME280;35899;50.352;19.390;2023-04-22T05:10:34;97690.13;;;5.97;69.58
50011;BME280;35899;50.352;19.390;2023-04-22T05:13:00;97690.49;;;6.21;69.55
50011;BME280;35899;50.352;19.390;2023-04-22T05:15:30;97687.40;;;6.42;69.38
50011;BME280;35899;50.352;19.390;2023-04-22T05:17:56;97687.33;;;6.62;69.33
50011;BME280;35899;50.352;19.390;2023-04-22T05:20:29;97686.21;;;6.78;69.14
50011;BME280;35899;50.352;19.390;2023-04-22T05:22:55;97685.34;;;6.96;68.89
50011;BME280;35899;50.352;19.390;2023-04-22T05:25:22;97684.73;;;7.12;68.62
50011;BME280;35899;50.352;19.390;2023-04-22T05:27:56;97685.20;;;7.30;68.48
50011;BME280;35899;50.352;19.390;2023-04-22T05:30:23;97690.87;;;7.44;68.20
50011;BME280;35899;50.352;19.390;2023-04-22T05:32:50;97688.77;;;7.56;68.03
50011;BME280;35899;50.352;19.390;2023-04-22T05:35:16;97688.76;;;7.68;67.77
50011;BME280;35899;50.352;19.390;2023-04-22T05:37:43;97688.50;;;7.77;67.54
50011;BME280;35899;50.352;19.390;2023-04-22T05:40:17;97689.27;;;7.90;67.61
50011;BME280;35899;50.352;19.390;2023-04-22T05:42:44;97689.84;;;8.08;67.39
50011;BME280;35899;50.352;19.390;2023-04-22T05:45:10;97688.08;;;8.25;67.01
50011;BME280;35899;50.352;19.390;2023-04-22T05:47:37;97687.85;;;8.42;67.08
50011;BME280;35899;50.352;19.390;2023-04-22T05:50:04;97686.94;;;8.56;67.09
50011;BME280;35899;50.352;19.390;2023-04-22T05:52:36;97686.42;;;8.69;67.08
50011;BME280;35899;50.352;19.390;2023-04-22T05:55:19;97687.34;;;8.84;66.87
50011;BME280;35899;50.352;19.390;2023-04-22T05:57:46;97687.67;;;8.97;67.18
50011;BME280;35899;50.352;19.390;2023-04-22T06:00:45;97690.46;;;9.14;66.90
50011;BME280;35899;50.352;19.390;2023-04-22T06:03:20;97685.27;;;9.30;66.89
50011;BME280;35899;50.352;19.390;2023-04-22T06:05:47;97689.77;;;9.42;66.72
50011;BME280;35899;50.352;19.390;2023-04-22T06:08:15;97687.68;;;9.55;66.67
50011;BME280;35899;50.352;19.390;2023-04-22T06:10:47;97691.13;;;9.70;66.35
50011;BME280;35899;50.352;19.390;2023-04-22T06:13:15;97690.69;;;9.86;66.08
50011;BME280;35899;50.352;19.390;2023-04-22T06:15:41;97691.30;;;10.01;65.69
50011;BME280;35899;50.352;19.390;2023-04-22T06:18:08;97692.59;;;10.17;65.33
50011;BME280;35899;50.352;19.390;2023-04-22T06:20:35;97694.02;;;10.34;65.19
50011;BME280;35899;50.352;19.390;2023-04-22T06:23:09;97688.64;;;10.48;64.98
50011;BME280;35899;50.352;19.390;2023-04-22T06:25:36;97690.46;;;10.66;64.84
50011;BME280;35899;50.352;19.390;2023-04-22T06:28:05;97692.03;;;10.82;64.29
50011;BME280;35899;50.352;19.390;2023-04-22T06:30:38;97691.38;;;10.98;64.27
50011;BME280;35899;50.352;19.390;2023-04-22T06:33:05;97690.18;;;11.14;64.36
50011;BME280;35899;50.352;19.390;2023-04-22T06:35:32;97688.52;;;11.28;63.74
50011;BME280;35899;50.352;19.390;2023-04-22T06:38:01;97689.14;;;11.41;63.20
50011;BME280;35899;50.352;19.390;2023-04-22T06:40:30;97688.15;;;11.53;63.01
50011;BME280;35899;50.352;19.390;2023-04-22T06:43:13;97689.52;;;11.69;63.02
50011;BME280;35899;50.352;19.390;2023-04-22T06:46:06;97690.09;;;11.87;62.93
50011;BME280;35899;50.352;19.390;2023-04-22T06:48:58;97686.80;;;12.04;62.86
50011;BME280;35899;50.352;19.390;2023-04-22T06:51:54;97686.93;;;12.20;62.58
50011;BME280;35899;50.352;19.390;2023-04-22T06:54:20;97684.43;;;12.34;62.38
50011;BME280;35899;50.352;19.390;2023-04-22T06:56:47;97683.45;;;12.46;62.18
50011;BME280;35899;50.352;19.390;2023-04-22T06:59:14;97682.60;;;12.61;62.30
50011;BME280;35899;50.352;19.390;2023-04-22T07:01:40;97682.17;;;12.76;61.96
50011;BME280;35899;50.352;19.390;2023-04-22T07:04:07;97680.48;;;12.93;61.99
50011;BME280;35899;50.352;19.390;2023-04-22T07:06:34;97679.48;;;13.08;61.70
50011;BME280;35899;50.352;19.390;2023-04-22T07:09:04;97682.50;;;13.24;61.55
50011;BME280;35899;50.352;19.390;2023-04-22T07:11:30;97682.75;;;13.40;61.17
50011;BME280;35899;50.352;19.390;2023-04-22T07:14:01;97684.21;;;13.55;60.54
50011;BME280;35899;50.352;19.390;2023-04-22T07:16:28;97684.64;;;13.71;60.24
50011;BME280;35899;50.352;19.390;2023-04-22T07:18:56;97683.69;;;13.86;59.56
50011;BME280;35899;50.352;19.390;2023-04-22T07:21:23;97684.52;;;13.98;58.36
50011;BME280;35899;50.352;19.390;2023-04-22T07:23:49;97683.15;;;14.12;57.35
50011;BME280;35899;50.352;19.390;2023-04-22T07:26:16;97686.30;;;14.25;56.46
50011;BME280;35899;50.352;19.390;2023-04-22T07:28:42;97686.30;;;14.39;56.20
50011;BME280;35899;50.352;19.390;2023-04-22T07:31:11;97683.59;;;14.52;55.09
50011;BME280;35899;50.352;19.390;2023-04-22T07:33:38;97688.82;;;14.64;54.13
50011;BME280;35899;50.352;19.390;2023-04-22T07:36:05;97685.79;;;14.74;54.06
50011;BME280;35899;50.352;19.390;2023-04-22T07:38:31;97685.52;;;14.87;53.94
50011;BME280;35899;50.352;19.390;2023-04-22T07:40:58;97680.27;;;14.98;53.00
50011;BME280;35899;50.352;19.390;2023-04-22T07:43:28;97682.68;;;15.08;53.17
50011;BME280;35899;50.352;19.390;2023-04-22T07:45:56;97681.23;;;15.18;52.52
50011;BME280;35899;50.352;19.390;2023-04-22T07:48:23;97683.89;;;15.27;51.28
50011;BME280;35899;50.352;19.390;2023-04-22T07:50:49;97682.89;;;15.36;50.35
50011;BME280;35899;50.352;19.390;2023-04-22T07:53:16;97680.20;;;15.40;48.78
50011;BME280;35899;50.352;19.390;2023-04-22T07:55:42;97680.67;;;15.48;49.36
50011;BME280;35899;50.352;19.390;2023-04-22T07:58:12;97681.11;;;15.58;49.05
50011;BME280;35899;50.352;19.390;2023-04-22T08:00:38;97681.95;;;15.66;49.00
50011;BME280;35899;50.352;19.390;2023-04-22T08:03:29;97681.73;;;15.74;48.36
50011;BME280;35899;50.352;19.390;2023-04-22T08:05:55;97678.13;;;15.83;47.35
50011;BME280;35899;50.352;19.390;2023-04-22T08:08:22;97679.93;;;15.93;48.07
50011;BME280;35899;50.352;19.390;2023-04-22T08:10:48;97684.55;;;16.03;47.75
50011;BME280;35899;50.352;19.390;2023-04-22T08:13:15;97680.05;;;16.12;47.65
50011;BME280;35899;50.352;19.390;2023-04-22T08:15:46;97681.88;;;16.26;47.47
50011;BME280;35899;50.352;19.390;2023-04-22T08:18:13;97684.13;;;16.33;45.99
50011;BME280;35899;50.352;19.390;2023-04-22T08:20:42;97678.05;;;16.39;46.22
50011;BME280;35899;50.352;19.390;2023-04-22T08:23:08;97676.52;;;16.49;45.45
50011;BME280;35899;50.352;19.390;2023-04-22T08:25:34;97675.26;;;16.52;44.19
50011;BME280;35899;50.352;19.390;2023-04-22T08:28:01;97675.10;;;16.54;43.86
50011;BME280;35899;50.352;19.390;2023-04-22T08:30:28;97676.54;;;16.62;44.04
50011;BME280;35899;50.352;19.390;2023-04-22T08:32:54;97676.13;;;16.73;43.99
50011;BME280;35899;50.352;19.390;2023-04-22T08:35:21;97680.20;;;16.86;44.12
50011;BME280;35899;50.352;19.390;2023-04-22T08:37:47;97675.04;;;16.95;44.13
50011;BME280;35899;50.352;19.390;2023-04-22T08:40:13;97671.98;;;17.05;44.28
50011;BME280;35899;50.352;19.390;2023-04-22T08:42:40;97671.75;;;17.16;43.84
50011;BME280;35899;50.352;19.390;2023-04-22T08:45:07;97670.92;;;17.26;43.57
50011;BME280;35899;50.352;19.390;2023-04-22T08:47:42;97671.40;;;17.33;43.20
50011;BME280;35899;50.352;19.390;2023-04-22T08:50:18;97670.20;;;17.40;43.63
50011;BME280;35899;50.352;19.390;2023-04-22T08:52:45;97670.85;;;17.49;43.26
50011;BME280;35899;50.352;19.390;2023-04-22T08:55:12;97666.49;;;17.55;42.98
50011;BME280;35899;50.352;19.390;2023-04-22T08:57:39;97665.54;;;17.65;43.50
50011;BME280;35899;50.352;19.390;2023-04-22T09:00:06;97667.31;;;17.76;42.72
50011;BME280;35899;50.352;19.390;2023-04-22T09:02:33;97666.33;;;17.77;40.48
50011;BME280;35899;50.352;19.390;2023-04-22T09:05:02;97664.73;;;17.78;40.16
50011;BME280;35899;50.352;19.390;2023-04-22T09:07:33;97666.48;;;17.86;41.24
50011;BME280;35899;50.352;19.390;2023-04-22T09:10:00;97665.04;;;17.98;41.50
50011;BME280;35899;50.352;19.390;2023-04-22T09:12:26;97663.09;;;18.07;41.35
50011;BME280;35899;50.352;19.390;2023-04-22T09:14:53;97663.73;;;18.18;40.95
50011;BME280;35899;50.352;19.390;2023-04-22T09:17:29;97661.25;;;18.28;41.21
50011;BME280;35899;50.352;19.390;2023-04-22T09:20:08;97662.42;;;18.37;40.87
50011;BME280;35899;50.352;19.390;2023-04-22T09:22:39;97658.33;;;18.46;41.25
50011;BME280;35899;50.352;19.390;2023-04-22T09:25:20;97655.77;;;18.60;41.45
50011;BME280;35899;50.352;19.390;2023-04-22T09:27:50;97651.75;;;18.72;40.91
50011;BME280;35899;50.352;19.390;2023-04-22T09:30:19;97651.39;;;18.83;40.86
50011;BME280;35899;50.352;19.390;2023-04-22T09:32:51;97644.65;;;18.93;40.13
50011;BME280;35899;50.352;19.390;2023-04-22T09:35:28;97643.38;;;19.02;39.69
50011;BME280;35899;50.352;19.390;2023-04-22T09:37:55;97641.22;;;19.11;39.78
50011;BME280;35899;50.352;19.390;2023-04-22T09:43:02;97639.66;;;19.35;39.53
50011;BME280;35899;50.352;19.390;2023-04-22T09:45:35;97636.14;;;19.39;39.29
50011;BME280;35899;50.352;19.390;2023-04-22T09:48:20;97634.84;;;19.45;39.13
50011;BME280;35899;50.352;19.390;2023-04-22T09:50:51;97631.65;;;19.70;37.21
50011;BME280;35899;50.352;19.390;2023-04-22T09:53:18;97626.03;;;20.02;37.20
50011;BME280;35899;50.352;19.390;2023-04-22T09:55:48;97622.39;;;20.40;36.99
50011;BME280;35899;50.352;19.390;2023-04-22T09:58:24;97622.45;;;20.89;37.25
50011;BME280;35899;50.352;19.390;2023-04-22T10:00:53;97620.55;;;21.34;37.12
50011;BME280;35899;50.352;19.390;2023-04-22T10:03:31;97619.27;;;21.82;36.71
50011;BME280;35899;50.352;19.390;2023-04-22T10:06:01;97623.67;;;22.27;36.58
50011;BME280;35899;50.352;19.390;2023-04-22T10:08:48;97613.84;;;22.72;35.23
50011;BME280;35899;50.352;19.390;2023-04-22T10:14:13;97616.64;;;23.44;34.83
50011;BME280;35899;50.352;19.390;2023-04-22T10:16:41;97616.60;;;23.78;33.97
50011;BME280;35899;50.352;19.390;2023-04-22T10:19:13;97607.98;;;24.17;34.41
50011;BME280;35899;50.352;19.390;2023-04-22T10:21:43;97603.55;;;24.50;33.46
50011;BME280;35899;50.352;19.390;2023-04-22T10:24:14;97604.03;;;24.83;33.58
50011;BME280;35899;50.352;19.390;2023-04-22T10:29:14;97594.95;;;25.43;32.00
50011;BME280;35899;50.352;19.390;2023-04-22T10:31:44;97595.65;;;25.76;32.06
50011;BME280;35899;50.352;19.390;2023-04-22T10:34:12;97598.77;;;26.16;30.34
50011;BME280;35899;50.352;19.390;2023-04-22T10:36:52;97595.16;;;26.41;30.12
50011;BME280;35899;50.352;19.390;2023-04-22T10:39:21;97596.09;;;26.73;29.44
50011;BME280;35899;50.352;19.390;2023-04-22T10:41:52;97596.52;;;27.11;29.41
50011;BME280;35899;50.352;19.390;2023-04-22T10:44:19;97596.23;;;27.50;29.52
50011;BME280;35899;50.352;19.390;2023-04-22T10:49:19;97591.36;;;28.27;28.76
50011;BME280;35899;50.352;19.390;2023-04-22T10:51:50;97596.38;;;28.62;28.11
50011;BME280;35899;50.352;19.390;2023-04-22T10:57:03;97592.02;;;29.21;24.75
50011;BME280;35899;50.352;19.390;2023-04-22T10:59:44;97591.71;;;29.34;25.94
50011;BME280;35899;50.352;19.390;2023-04-22T11:02:12;97594.27;;;29.67;26.00
50011;BME280;35899;50.352;19.390;2023-04-22T11:04:41;97595.06;;;30.12;25.44
50011;BME280;35899;50.352;19.390;2023-04-22T11:09:51;97585.88;;;30.72;24.60
50011;BME280;35899;50.352;19.390;2023-04-22T11:15:25;97582.23;;;31.63;24.17
50011;BME280;35899;50.352;19.390;2023-04-22T11:17:54;97579.78;;;31.90;23.55
50011;BME280;35899;50.352;19.390;2023-04-22T11:20:20;97571.79;;;32.39;23.08
50011;BME280;35899;50.352;19.390;2023-04-22T11:22:48;97567.80;;;32.84;23.15
50011;BME280;35899;50.352;19.390;2023-04-22T11:25:16;97569.83;;;33.34;22.96
50011;BME280;35899;50.352;19.390;2023-04-22T11:27:42;97561.39;;;33.71;22.48
50011;BME280;35899;50.352;19.390;2023-04-22T11:30:10;97564.23;;;34.07;22.69
50011;BME280;35899;50.352;19.390;2023-04-22T11:32:39;97564.52;;;34.41;21.91
50011;BME280;35899;50.352;19.390;2023-04-22T11:35:07;97565.64;;;34.68;21.74
50011;BME280;35899;50.352;19.390;2023-04-22T11:40:07;97561.72;;;35.17;20.93
50011;BME280;35899;50.352;19.390;2023-04-22T11:42:55;97564.56;;;35.47;21.26
50011;BME280;35899;50.352;19.390;2023-04-22T11:45:24;97562.77;;;36.09;21.04
50011;BME280;35899;50.352;19.390;2023-04-22T11:47:51;97561.29;;;36.56;20.56
50011;BME280;35899;50.352;19.390;2023-04-22T11:50:22;97561.48;;;36.88;20.43
50011;BME280;35899;50.352;19.390;2023-04-22T11:52:50;97560.05;;;37.03;19.59
50011;BME280;35899;50.352;19.390;2023-04-22T11:55:19;97560.38;;;37.05;19.72
50011;BME280;35899;50.352;19.390;2023-04-22T11:57:50;97554.60;;;37.03;19.94
50011;BME280;35899;50.352;19.390;2023-04-22T12:00:21;97552.81;;;37.19;19.19
50011;BME280;35899;50.352;19.390;2023-04-22T12:03:22;97550.94;;;37.17;18.67
50011;BME280;35899;50.352;19.390;2023-04-22T12:05:43;97553.04;;;37.26;18.90
50011;BME280;35899;50.352;19.390;2023-04-22T12:08:13;97553.46;;;37.67;19.21
50011;BME280;35899;50.352;19.390;2023-04-22T12:10:41;97550.93;;;38.03;18.55
50011;BME280;35899;50.352;19.390;2023-04-22T12:13:16;97548.38;;;37.92;17.98
50011;BME280;35899;50.352;19.390;2023-04-22T12:15:43;97548.40;;;37.91;17.86
50011;BME280;35899;50.352;19.390;2023-04-22T12:18:10;97547.05;;;37.95;17.76
50011;BME280;35899;50.352;19.390;2023-04-22T12:20:37;97546.39;;;38.29;18.02
50011;BME280;35899;50.352;19.390;2023-04-22T12:23:03;97543.05;;;38.65;17.70
50011;BME280;35899;50.352;19.390;2023-04-22T12:25:30;97541.67;;;39.15;17.35
50011;BME280;35899;50.352;19.390;2023-04-22T12:27:56;97539.16;;;39.28;17.05
50011;BME280;35899;50.352;19.390;2023-04-22T12:30:23;97538.06;;;39.49;17.00
50011;BME280;35899;50.352;19.390;2023-04-22T12:32:49;97535.55;;;39.66;16.50
50011;BME280;35899;50.352;19.390;2023-04-22T12:35:16;97534.48;;;39.71;16.37
50011;BME280;35899;50.352;19.390;2023-04-22T12:37:42;97540.79;;;39.56;15.11
50011;BME280;35899;50.352;19.390;2023-04-22T12:40:09;97536.48;;;39.18;15.46
50011;BME280;35899;50.352;19.390;2023-04-22T12:42:35;97540.91;;;39.25;15.47
50011;BME280;35899;50.352;19.390;2023-04-22T12:45:01;97537.56;;;39.50;15.99
50011;BME280;35899;50.352;19.390;2023-04-22T12:47:29;97537.42;;;39.66;15.59
50011;BME280;35899;50.352;19.390;2023-04-22T12:49:56;97534.98;;;39.78;15.61
50011;BME280;35899;50.352;19.390;2023-04-22T12:52:22;97531.25;;;40.20;15.79
50011;BME280;35899;50.352;19.390;2023-04-22T12:54:48;97526.16;;;40.58;15.56
50011;BME280;35899;50.352;19.390;2023-04-22T12:57:15;97525.12;;;40.80;15.71
50011;BME280;35899;50.352;19.390;2023-04-22T12:59:44;97523.35;;;41.04;16.06
50011;BME280;35899;50.352;19.390;2023-04-22T13:02:10;97515.59;;;41.39;16.15
50011;BME280;35899;50.352;19.390;2023-04-22T13:04:37;97514.89;;;41.58;15.62
50011;BME280;35899;50.352;19.390;2023-04-22T13:07:04;97519.44;;;41.82;15.78
50011;BME280;35899;50.352;19.390;2023-04-22T13:09:30;97515.88;;;42.18;15.52
50011;BME280;35899;50.352;19.390;2023-04-22T13:11:57;97514.45;;;42.46;15.62
50011;BME280;35899;50.352;19.390;2023-04-22T13:14:23;97509.92;;;42.72;15.22
50011;BME280;35899;50.352;19.390;2023-04-22T13:16:52;97507.13;;;42.63;14.23
50011;BME280;35899;50.352;19.390;2023-04-22T13:19:21;97508.20;;;42.22;14.14
50011;BME280;35899;50.352;19.390;2023-04-22T13:21:47;97510.96;;;41.93;14.12
50011;BME280;35899;50.352;19.390;2023-04-22T13:24:14;97506.33;;;41.60;13.51